createdAt,value
2023-03-30T00:01:14.891Z,98681.84
2023-03-30T00:03:43.359Z,98673.69
2023-03-30T00:06:12.484Z,98665.25
2023-03-30T00:08:39.346Z,98645.25
2023-03-30T00:11:13.404Z,98647.66
2023-03-30T00:13:40.535Z,98642.66
2023-03-30T00:16:12.143Z,98658.78
2023-03-30T00:18:39.826Z,98659.91
2023-03-30T00:21:09.952Z,98654.78
2023-03-30T00:23:38.349Z,98657.97
2023-03-30T00:26:05.413Z,98643.78
2023-03-30T00:28:32.337Z,98650.63
2023-03-30T00:30:59.791Z,98644.66
2023-03-30T00:33:41.518Z,98643.59
2023-03-30T00:36:11.713Z,98647.09
2023-03-30T00:38:38.637Z,98625.00
2023-03-30T00:41:07.122Z,98637.72
2023-03-30T00:43:34.180Z,98624.09
2023-03-30T00:46:01.425Z,98630.03
2023-03-30T00:48:34.558Z,98620.41
2023-03-30T00:51:12.254Z,98612.88
2023-03-30T00:53:47.229Z,98621.31
2023-03-30T00:56:17.992Z,98605.00
2023-03-30T00:58:45.293Z,98594.53
2023-03-30T01:01:18.843Z,98587.69
2023-03-30T01:03:48.070Z,98581.66
2023-03-30T01:06:17.970Z,98597.88
2023-03-30T01:08:45.702Z,98595.19
2023-03-30T01:11:12.540Z,98579.25
2023-03-30T01:13:44.962Z,98584.34
2023-03-30T01:17:02.933Z,98570.53
2023-03-30T01:20:28.373Z,98573.78
2023-03-30T01:23:19.839Z,98561.56
2023-03-30T01:26:01.552Z,98554.72
2023-03-30T01:28:43.703Z,98560.75
2023-03-30T01:31:52.895Z,98578.16
2023-03-30T01:34:43.904Z,98586.50
2023-03-30T01:37:34.502Z,98612.44
2023-03-30T01:40:41.124Z,98634.09
2023-03-30T01:43:38.094Z,98660.63
2023-03-30T01:46:20.035Z,98637.84
2023-03-30T01:48:57.957Z,98625.91
2023-03-30T01:51:33.959Z,98619.94
2023-03-30T01:54:08.675Z,98588.06
2023-03-30T01:56:59.987Z,98602.06
2023-03-30T01:59:39.150Z,98604.09
2023-03-30T02:02:07.281Z,98595.41
2023-03-30T02:04:40.719Z,98618.59
2023-03-30T02:07:14.522Z,98626.38
2023-03-30T02:09:43.909Z,98636.75
2023-03-30T02:12:11.629Z,98625.38
2023-03-30T02:14:41.668Z,98620.09
2023-03-30T02:17:19.559Z,98607.34
2023-03-30T02:19:47.627Z,98621.09
2023-03-30T02:22:16.628Z,98631.56
2023-03-30T02:24:46.554Z,98628.97
2023-03-30T02:27:13.749Z,98622.13
2023-03-30T02:29:44.533Z,98629.81
2023-03-30T02:32:28.494Z,98634.16
2023-03-30T02:35:33.089Z,98647.69
2023-03-30T02:38:15.527Z,98642.69
2023-03-30T02:41:08.774Z,98647.22
2023-03-30T02:44:26.686Z,98652.50
2023-03-30T02:47:09.231Z,98649.34
2023-03-30T02:50:13.742Z,98649.44
2023-03-30T02:52:57.000Z,98635.22
2023-03-30T02:55:37.900Z,98640.81
2023-03-30T02:58:24.240Z,98646.94
2023-03-30T03:01:04.477Z,98634.28
2023-03-30T03:03:40.167Z,98626.31
2023-03-30T03:06:09.322Z,98614.28
2023-03-30T03:08:39.836Z,98622.81
2023-03-30T03:11:07.913Z,98612.25
2023-03-30T03:13:39.535Z,98607.44
2023-03-30T03:16:10.952Z,98599.50
2023-03-30T03:18:44.718Z,98593.38
2023-03-30T03:21:14.030Z,98576.16
2023-03-30T03:23:41.143Z,98560.75
2023-03-30T03:26:09.057Z,98559.84
2023-03-30T03:28:36.317Z,98555.31
2023-03-30T03:31:04.045Z,98556.31
2023-03-30T03:33:33.687Z,98556.31
2023-03-30T03:36:00.684Z,98549.56
2023-03-30T03:38:28.072Z,98542.97
2023-03-30T03:40:58.381Z,98528.41
2023-03-30T03:43:26.091Z,98526.44
2023-03-30T03:45:53.794Z,98526.66
2023-03-30T03:48:23.564Z,98524.03
2023-03-30T03:50:56.618Z,98529.88
2023-03-30T03:53:26.565Z,98536.66
2023-03-30T03:55:54.625Z,98539.81
2023-03-30T03:58:22.198Z,98541.94
2023-03-30T04:00:49.890Z,98541.03
2023-03-30T04:03:17.070Z,98540.19
2023-03-30T04:05:44.246Z,98532.03
2023-03-30T04:08:11.849Z,98530.16
2023-03-30T04:10:40.160Z,98531.00
2023-03-30T04:13:07.683Z,98511.44
2023-03-30T04:15:35.359Z,98500.91
2023-03-30T04:18:02.298Z,98500.16
2023-03-30T04:20:30.070Z,98492.53
2023-03-30T04:22:57.279Z,98489.78
2023-03-30T04:25:29.132Z,98476.81
2023-03-30T04:27:57.253Z,98441.22
2023-03-30T04:30:24.810Z,98467.88
2023-03-30T04:33:02.766Z,98452.41
2023-03-30T04:35:34.780Z,98458.78
2023-03-30T04:38:02.403Z,98446.84
2023-03-30T04:40:29.769Z,98441.28
2023-03-30T04:43:02.360Z,98437.03
2023-03-30T04:45:31.005Z,98429.50
2023-03-30T04:47:58.204Z,98421.00
2023-03-30T04:50:25.209Z,98417.22
2023-03-30T04:52:52.072Z,98431.38
2023-03-30T04:55:18.901Z,98423.59
2023-03-30T04:57:46.487Z,98407.28
2023-03-30T05:00:14.105Z,98403.75
2023-03-30T05:02:42.132Z,98429.34
2023-03-30T05:05:09.193Z,98426.56
2023-03-30T05:07:36.157Z,98430.19
2023-03-30T05:10:03.068Z,98443.41
2023-03-30T05:12:29.908Z,98431.56
2023-03-30T05:14:56.766Z,98409.69
2023-03-30T05:17:23.627Z,98397.88
2023-03-30T05:19:50.478Z,98417.56
2023-03-30T05:22:17.332Z,98399.50
2023-03-30T05:24:44.161Z,98408.75
2023-03-30T05:27:11.213Z,98414.13
2023-03-30T05:29:38.113Z,98412.28
2023-03-30T05:32:05.065Z,98413.38
2023-03-30T05:34:31.863Z,98410.78
2023-03-30T05:36:58.704Z,98393.22
2023-03-30T05:39:25.512Z,98391.16
2023-03-30T05:41:52.953Z,98412.28
2023-03-30T05:44:21.910Z,98408.94
2023-03-30T05:46:49.438Z,98401.16
2023-03-30T05:49:16.402Z,98409.78
2023-03-30T05:51:43.239Z,98407.28
2023-03-30T05:54:14.125Z,98395.22
2023-03-30T05:56:42.320Z,98397.81
2023-03-30T05:59:10.352Z,98398.94
2023-03-30T06:01:37.637Z,98407.28
2023-03-30T06:04:04.805Z,98399.31
2023-03-30T06:06:32.224Z,98416.63
2023-03-30T06:08:59.149Z,98427.31
2023-03-30T06:11:25.989Z,98438.13
2023-03-30T06:13:52.855Z,98443.41
2023-03-30T06:16:19.693Z,98430.34
2023-03-30T06:18:46.630Z,98451.50
2023-03-30T06:21:13.602Z,98466.50
2023-03-30T06:23:41.252Z,98475.50
2023-03-30T06:26:09.299Z,98478.66
2023-03-30T06:28:36.564Z,98488.28
2023-03-30T06:31:09.131Z,98473.47
2023-03-30T06:33:37.895Z,98489.88
2023-03-30T06:36:11.888Z,98478.66
2023-03-30T06:38:39.471Z,98482.00
2023-03-30T06:41:09.958Z,98491.22
2023-03-30T06:43:37.229Z,98492.16
2023-03-30T06:46:05.230Z,98490.69
2023-03-30T06:48:32.068Z,98480.88
2023-03-30T06:50:59.304Z,98487.09
2023-03-30T06:53:26.429Z,98473.66
2023-03-30T06:55:56.770Z,98497.38
2023-03-30T06:58:28.289Z,98498.22
2023-03-30T07:00:55.894Z,98511.16
2023-03-30T07:03:22.979Z,98517.38
2023-03-30T07:05:52.965Z,98533.50
2023-03-30T07:08:20.245Z,98538.78
2023-03-30T07:10:48.825Z,98554.91
2023-03-30T07:13:16.944Z,98555.56
2023-03-30T07:15:44.773Z,98554.72
2023-03-30T07:18:11.740Z,98575.03
2023-03-30T07:20:38.913Z,98582.81
2023-03-30T07:23:06.475Z,98589.69
2023-03-30T07:25:33.346Z,98586.81
2023-03-30T07:28:00.164Z,98593.38
2023-03-30T07:30:27.567Z,98579.13
2023-03-30T07:32:56.167Z,98603.88
2023-03-30T07:35:24.892Z,98597.94
2023-03-30T07:37:51.798Z,98615.66
2023-03-30T07:40:21.235Z,98617.59
2023-03-30T07:42:48.171Z,98621.19
2023-03-30T07:45:16.583Z,98635.31
2023-03-30T07:47:43.680Z,98608.59
2023-03-30T07:50:10.838Z,98614.16
2023-03-30T07:52:38.074Z,98598.56
2023-03-30T07:55:05.514Z,98599.34
2023-03-30T07:57:32.403Z,98580.59
2023-03-30T07:59:59.399Z,98571.59
2023-03-30T08:02:27.188Z,98566.31
2023-03-30T08:04:54.484Z,98605.25
2023-03-30T08:07:21.373Z,98587.16
2023-03-30T08:09:48.305Z,98612.34
2023-03-30T08:12:15.183Z,98598.41
2023-03-30T08:14:42.121Z,98609.88
2023-03-30T08:17:09.029Z,98614.94
2023-03-30T08:19:36.016Z,98608.03
2023-03-30T08:22:03.326Z,98643.31
2023-03-30T08:24:30.267Z,98656.63
2023-03-30T08:26:57.126Z,98660.94
2023-03-30T08:29:24.022Z,98653.22
2023-03-30T08:31:54.007Z,98660.28
2023-03-30T08:34:20.890Z,98690.41
2023-03-30T08:36:47.697Z,98695.59
2023-03-30T08:39:15.510Z,98671.31
2023-03-30T08:41:57.561Z,98687.81
2023-03-30T08:44:39.200Z,98681.72
2023-03-30T08:47:15.979Z,98680.78
2023-03-30T08:49:52.418Z,98692.78
2023-03-30T08:52:25.041Z,98685.78
2023-03-30T08:54:52.997Z,98688.28
2023-03-30T08:58:14.657Z,98685.41
2023-03-30T09:00:51.542Z,98673.66
2023-03-30T09:03:37.768Z,98657.06
2023-03-30T09:06:19.669Z,98661.22
2023-03-30T09:08:47.869Z,98636.31
2023-03-30T09:11:26.091Z,98653.59
2023-03-30T09:13:53.469Z,98652.75
2023-03-30T09:16:35.563Z,98643.16
2023-03-30T09:19:05.426Z,98635.31
2023-03-30T09:21:32.469Z,98652.66
2023-03-30T09:24:11.729Z,98635.75
2023-03-30T09:27:03.619Z,98606.88
2023-03-30T09:29:34.144Z,98599.19
2023-03-30T09:32:33.250Z,98600.78
2023-03-30T09:35:14.275Z,98571.78
2023-03-30T09:37:41.098Z,98562.69
2023-03-30T09:40:31.504Z,98607.47
2023-03-30T09:43:25.723Z,98605.72
2023-03-30T09:45:52.716Z,98622.53
2023-03-30T09:48:19.566Z,98599.13
2023-03-30T09:50:46.947Z,98618.00
2023-03-30T09:53:26.926Z,98627.00
2023-03-30T09:56:13.373Z,98635.78
2023-03-30T09:58:41.489Z,98634.31
2023-03-30T10:01:19.938Z,98632.75
2023-03-30T10:04:11.007Z,98646.03
2023-03-30T10:06:50.757Z,98646.78
2023-03-30T10:09:22.041Z,98652.16
2023-03-30T10:11:51.448Z,98647.66
2023-03-30T10:14:28.804Z,98655.53
2023-03-30T10:16:57.717Z,98651.66
2023-03-30T10:19:26.149Z,98646.59
2023-03-30T10:22:04.135Z,98641.31
2023-03-30T10:24:33.996Z,98647.44
2023-03-30T10:27:13.190Z,98643.81
2023-03-30T10:29:48.662Z,98634.56
2023-03-30T10:32:20.764Z,98637.25
2023-03-30T10:34:54.492Z,98637.72
2023-03-30T10:37:33.268Z,98636.72
2023-03-30T10:40:09.953Z,98631.41
2023-03-30T10:42:37.126Z,98618.41
2023-03-30T10:45:07.070Z,98627.25
2023-03-30T10:47:59.462Z,98617.63
2023-03-30T10:51:03.807Z,98620.56
2023-03-30T10:54:21.868Z,98620.78
2023-03-30T10:56:54.429Z,98629.09
2023-03-30T11:00:10.133Z,98631.47
2023-03-30T11:03:12.724Z,98633.50
2023-03-30T11:05:47.962Z,98632.34
2023-03-30T11:08:40.889Z,98623.69
2023-03-30T11:11:20.931Z,98626.03
2023-03-30T11:14:01.918Z,98626.31
2023-03-30T11:16:57.290Z,98612.94
2023-03-30T11:19:40.472Z,98621.47
2023-03-30T11:22:42.305Z,98621.81
2023-03-30T11:25:23.876Z,98627.28
2023-03-30T11:28:01.586Z,98615.88
2023-03-30T11:30:34.928Z,98603.34
2023-03-30T11:33:39.246Z,98611.59
2023-03-30T11:36:27.367Z,98609.81
2023-03-30T11:39:05.550Z,98608.56
2023-03-30T11:41:44.283Z,98606.88
2023-03-30T11:44:11.981Z,98634.16
2023-03-30T11:47:13.962Z,98639.03
2023-03-30T11:49:50.981Z,98637.06
2023-03-30T11:52:47.867Z,98618.66
2023-03-30T11:56:10.640Z,98613.16
2023-03-30T11:59:02.338Z,98616.41
2023-03-30T12:01:44.262Z,98623.91
2023-03-30T12:04:15.937Z,98620.13
2023-03-30T12:06:58.846Z,98628.47
2023-03-30T12:09:37.254Z,98633.16
2023-03-30T12:12:18.417Z,98640.84
2023-03-30T12:15:02.828Z,98637.97
2023-03-30T12:17:44.313Z,98632.44
2023-03-30T12:20:18.103Z,98645.56
2023-03-30T12:23:21.556Z,98646.19
2023-03-30T12:26:11.153Z,98637.75
2023-03-30T12:29:20.792Z,98627.59
2023-03-30T12:32:03.570Z,98597.69
2023-03-30T12:34:37.348Z,98609.44
2023-03-30T12:37:23.908Z,98614.28
2023-03-30T12:40:09.113Z,98604.19
2023-03-30T12:42:54.232Z,98598.00
2023-03-30T12:45:28.615Z,98600.53
2023-03-30T12:48:26.394Z,98622.00
2023-03-30T12:51:32.605Z,98603.75
2023-03-30T12:54:38.847Z,98586.78
2023-03-30T12:57:31.508Z,98581.09
2023-03-30T13:00:29.236Z,98592.44
2023-03-30T13:03:36.318Z,98592.09
2023-03-30T13:06:07.255Z,98576.31
2023-03-30T13:08:41.288Z,98569.94
2023-03-30T13:11:17.355Z,98549.94
2023-03-30T13:13:51.625Z,98572.09
2023-03-30T13:16:52.618Z,98566.28
2023-03-30T13:19:34.199Z,98546.38
2023-03-30T13:22:12.938Z,98539.28
2023-03-30T13:24:54.067Z,98540.28
2023-03-30T13:27:36.404Z,98556.22
2023-03-30T13:30:09.208Z,98548.16
2023-03-30T13:33:00.904Z,98544.16
2023-03-30T13:36:05.260Z,98538.25
2023-03-30T13:39:04.427Z,98529.09
2023-03-30T13:42:05.599Z,98536.81
2023-03-30T13:44:53.948Z,98536.63
2023-03-30T13:47:47.910Z,98525.94
2023-03-30T13:50:27.313Z,98542.84
2023-03-30T13:52:56.166Z,98518.19
2023-03-30T13:55:35.831Z,98536.22
2023-03-30T13:58:20.695Z,98531.47
2023-03-30T14:00:52.601Z,98518.09
2023-03-30T14:03:55.281Z,98519.50
2023-03-30T14:06:31.842Z,98509.31
2023-03-30T14:09:07.381Z,98504.66
2023-03-30T14:11:34.931Z,98512.41
2023-03-30T14:14:04.875Z,98513.00
2023-03-30T14:16:38.406Z,98506.81
2023-03-30T14:19:21.810Z,98507.22
2023-03-30T14:21:50.253Z,98496.16
2023-03-30T14:24:21.156Z,98485.34
2023-03-30T14:26:50.226Z,98499.25
2023-03-30T14:29:30.326Z,98498.06
2023-03-30T14:34:33.752Z,98509.34
2023-03-30T14:37:06.253Z,98513.28
2023-03-30T14:39:44.757Z,98528.25
2023-03-30T14:42:20.142Z,98519.69
2023-03-30T14:44:50.660Z,98503.19
2023-03-30T14:47:22.232Z,98512.56
2023-03-30T14:49:51.910Z,98505.53
2023-03-30T14:52:25.652Z,98508.19
2023-03-30T14:55:06.672Z,98512.03
2023-03-30T14:57:38.426Z,98513.25
2023-03-30T15:00:20.593Z,98507.91
2023-03-30T15:02:55.141Z,98514.66
2023-03-30T15:05:28.841Z,98524.16
2023-03-30T15:07:55.786Z,98503.97
2023-03-30T15:10:44.524Z,98512.03
2023-03-30T15:13:25.032Z,98528.19
2023-03-30T15:15:54.319Z,98527.34
2023-03-30T15:18:27.106Z,98529.81
2023-03-30T15:20:56.051Z,98516.88
2023-03-30T15:23:24.765Z,98524.25
2023-03-30T15:25:56.171Z,98522.03
2023-03-30T15:28:23.052Z,98531.22
2023-03-30T15:30:53.136Z,98531.03
2023-03-30T15:33:25.406Z,98547.91
2023-03-30T15:35:53.919Z,98530.31
2023-03-30T15:38:35.965Z,98533.31
2023-03-30T15:41:04.138Z,98525.09
2023-03-30T15:43:33.602Z,98527.00
2023-03-30T15:46:13.760Z,98540.91
2023-03-30T15:48:47.024Z,98524.63
2023-03-30T15:51:22.735Z,98537.69
2023-03-30T15:54:04.737Z,98533.91
2023-03-30T15:56:49.652Z,98544.13
2023-03-30T15:59:19.975Z,98551.47
2023-03-30T16:01:55.499Z,98530.53
2023-03-30T16:04:24.833Z,98536.72
2023-03-30T16:06:52.794Z,98524.41
2023-03-30T16:09:19.868Z,98536.00
2023-03-30T16:11:47.221Z,98552.66
2023-03-30T16:14:20.184Z,98545.75
2023-03-30T16:16:47.820Z,98550.53
2023-03-30T16:19:18.220Z,98558.28
2023-03-30T16:21:45.702Z,98540.84
2023-03-30T16:24:13.142Z,98565.53
2023-03-30T16:26:40.026Z,98560.50
2023-03-30T16:29:19.950Z,98550.66
2023-03-30T16:31:47.397Z,98551.00
2023-03-30T16:34:14.244Z,98548.84
2023-03-30T16:36:41.397Z,98537.22
2023-03-30T16:39:27.723Z,98538.53
2023-03-30T16:41:55.970Z,98550.63
2023-03-30T16:44:25.045Z,98560.59
2023-03-30T16:46:52.629Z,98562.59
2023-03-30T16:49:25.525Z,98560.94
2023-03-30T16:51:55.389Z,98567.22
2023-03-30T16:54:31.850Z,98562.47
2023-03-30T16:57:00.095Z,98572.56
2023-03-30T16:59:30.284Z,98557.03
2023-03-30T17:01:57.300Z,98539.28
2023-03-30T17:04:24.136Z,98547.63
2023-03-30T17:06:51.125Z,98562.13
2023-03-30T17:09:19.538Z,98564.25
2023-03-30T17:11:47.916Z,98562.56
2023-03-30T17:14:15.676Z,98561.59
2023-03-30T17:16:42.700Z,98555.88
2023-03-30T17:19:14.376Z,98561.56
2023-03-30T17:21:43.837Z,98569.84
2023-03-30T17:24:12.500Z,98571.41
2023-03-30T17:26:39.918Z,98566.97
2023-03-30T17:29:06.729Z,98568.34
2023-03-30T17:31:33.860Z,98575.47
2023-03-30T17:34:00.929Z,98561.19
2023-03-30T17:36:28.931Z,98561.38
2023-03-30T17:38:56.648Z,98573.34
2023-03-30T17:41:23.596Z,98573.47
2023-03-30T17:43:51.543Z,98562.00
2023-03-30T17:46:20.655Z,98573.41
2023-03-30T17:48:47.668Z,98566.22
2023-03-30T17:51:14.526Z,98547.50
2023-03-30T17:53:41.565Z,98575.19
2023-03-30T17:56:12.675Z,98573.53
2023-03-30T17:58:39.489Z,98560.00
2023-03-30T18:01:09.113Z,98579.41
2023-03-30T18:03:39.109Z,98582.72
2023-03-30T18:06:06.450Z,98578.38
2023-03-30T18:08:33.458Z,98573.66
2023-03-30T18:11:01.338Z,98580.84
2023-03-30T18:13:30.458Z,98580.63
2023-03-30T18:15:59.604Z,98586.72
2023-03-30T18:18:29.567Z,98587.47
2023-03-30T18:21:05.396Z,98594.03
2023-03-30T18:23:34.306Z,98589.38
2023-03-30T18:26:02.162Z,98599.66
2023-03-30T18:28:31.455Z,98603.31
2023-03-30T18:30:58.546Z,98610.00
2023-03-30T18:33:27.109Z,98616.56
2023-03-30T18:35:56.812Z,98615.22
2023-03-30T18:38:25.526Z,98611.66
2023-03-30T18:40:57.388Z,98598.78
2023-03-30T18:43:26.263Z,98604.38
2023-03-30T18:45:54.477Z,98614.50
2023-03-30T18:48:22.249Z,98620.72
2023-03-30T18:50:54.273Z,98626.78
2023-03-30T18:53:27.443Z,98618.03
2023-03-30T18:55:58.024Z,98617.19
2023-03-30T18:58:27.745Z,98627.09
2023-03-30T19:00:55.805Z,98613.22
2023-03-30T19:03:23.575Z,98635.31
2023-03-30T19:05:51.378Z,98631.56
2023-03-30T19:08:22.552Z,98636.69
2023-03-30T19:10:53.167Z,98631.47
2023-03-30T19:13:21.480Z,98635.41
2023-03-30T19:15:50.854Z,98645.41
2023-03-30T19:18:18.467Z,98632.34
2023-03-30T19:20:45.917Z,98643.69
2023-03-30T19:23:17.014Z,98640.47
2023-03-30T19:25:44.912Z,98633.38
2023-03-30T19:28:12.850Z,98637.97
2023-03-30T19:30:40.351Z,98641.31
2023-03-30T19:33:19.798Z,98645.41
2023-03-30T19:35:46.952Z,98644.72
2023-03-30T19:38:15.368Z,98648.03
2023-03-30T19:40:42.963Z,98644.47
2023-03-30T19:43:10.191Z,98633.28
2023-03-30T19:45:37.643Z,98639.25
2023-03-30T19:48:05.163Z,98620.97
2023-03-30T19:50:32.060Z,98618.47
2023-03-30T19:52:59.344Z,98631.81
2023-03-30T19:55:27.078Z,98617.00
2023-03-30T19:57:53.927Z,98633.03
2023-03-30T20:00:22.652Z,98622.63
2023-03-30T20:02:52.285Z,98622.63
2023-03-30T20:05:21.097Z,98616.78
2023-03-30T20:07:48.944Z,98627.19
2023-03-30T20:10:20.253Z,98622.00
2023-03-30T20:12:48.094Z,98620.66
2023-03-30T20:15:15.579Z,98610.13
2023-03-30T20:17:43.134Z,98614.50
2023-03-30T20:20:13.479Z,98613.84
2023-03-30T20:22:43.076Z,98605.94
2023-03-30T20:25:13.949Z,98607.16
2023-03-30T20:27:40.859Z,98605.72
2023-03-30T20:30:08.798Z,98592.34
2023-03-30T20:32:35.908Z,98592.94
2023-03-30T20:35:03.262Z,98590.13
2023-03-30T20:37:30.132Z,98596.22
2023-03-30T20:40:04.181Z,98597.19
2023-03-30T20:42:32.460Z,98588.63
2023-03-30T20:44:59.594Z,98592.72
2023-03-30T20:47:30.450Z,98584.91
2023-03-30T20:49:58.296Z,98573.72
2023-03-30T20:52:25.850Z,98578.66
2023-03-30T20:54:52.960Z,98573.44
2023-03-30T20:57:21.340Z,98580.84
2023-03-30T20:59:49.280Z,98581.97
2023-03-30T21:02:18.835Z,98573.25
2023-03-30T21:04:45.730Z,98585.13
2023-03-30T21:07:12.845Z,98570.84
2023-03-30T21:09:40.487Z,98593.09
2023-03-30T21:12:09.681Z,98597.56
2023-03-30T21:14:36.637Z,98582.34
2023-03-30T21:17:03.975Z,98583.84
2023-03-30T21:19:30.901Z,98579.56
2023-03-30T21:21:57.831Z,98591.34
2023-03-30T21:24:24.745Z,98580.50
2023-03-30T21:26:51.655Z,98586.53
2023-03-30T21:29:18.544Z,98585.28
2023-03-30T21:31:48.348Z,98572.41
2023-03-30T21:34:15.675Z,98562.22
2023-03-30T21:36:42.703Z,98569.47
2023-03-30T21:39:09.692Z,98574.66
2023-03-30T21:41:36.493Z,98559.91
2023-03-30T21:44:03.276Z,98552.66
2023-03-30T21:46:31.099Z,98538.47
2023-03-30T21:48:57.947Z,98542.59
2023-03-30T21:51:28.631Z,98520.31
2023-03-30T21:53:56.303Z,98537.00
2023-03-30T21:56:26.080Z,98527.19
2023-03-30T21:58:52.926Z,98535.72
2023-03-30T22:01:21.788Z,98532.28
2023-03-30T22:03:48.801Z,98530.72
2023-03-30T22:06:17.534Z,98514.28
2023-03-30T22:08:45.464Z,98512.44
2023-03-30T22:11:19.573Z,98506.00
2023-03-30T22:13:48.587Z,98509.72
2023-03-30T22:16:28.752Z,98501.09
2023-03-30T22:18:55.830Z,98488.09
2023-03-30T22:21:29.166Z,98497.47
2023-03-30T22:23:56.326Z,98496.84
2023-03-30T22:26:23.585Z,98494.97
2023-03-30T22:28:50.395Z,98506.22
2023-03-30T22:31:17.282Z,98498.50
2023-03-30T22:33:44.925Z,98492.47
2023-03-30T22:36:26.792Z,98492.63
2023-03-30T22:38:55.879Z,98491.31
2023-03-30T22:41:26.485Z,98481.88
2023-03-30T22:43:56.635Z,98478.31
2023-03-30T22:46:26.026Z,98483.31
2023-03-30T22:48:55.534Z,98459.72
2023-03-30T22:51:26.364Z,98461.16
2023-03-30T22:53:57.900Z,98465.63
2023-03-30T22:56:25.747Z,98454.78
2023-03-30T22:58:52.761Z,98450.53
2023-03-30T23:01:21.404Z,98452.38
2023-03-30T23:03:48.380Z,98432.59
2023-03-30T23:06:18.763Z,98439.44
2023-03-30T23:08:47.167Z,98432.59
2023-03-30T23:11:14.212Z,98428.13
2023-03-30T23:13:42.061Z,98423.97
2023-03-30T23:16:09.276Z,98422.41
2023-03-30T23:18:36.531Z,98428.16
2023-03-30T23:21:06.995Z,98427.53
2023-03-30T23:23:35.893Z,98407.53
2023-03-30T23:26:10.004Z,98425.97
2023-03-30T23:28:39.600Z,98427.53
2023-03-30T23:31:15.468Z,98416.91
2023-03-30T23:33:43.634Z,98403.66
2023-03-30T23:36:17.012Z,98423.75
2023-03-30T23:38:44.346Z,98395.69
2023-03-30T23:41:15.482Z,98400.38
2023-03-30T23:43:42.547Z,98388.53
2023-03-30T23:46:10.405Z,98393.00
2023-03-30T23:48:37.812Z,98356.16
2023-03-30T23:51:05.461Z,98370.50
2023-03-30T23:53:32.279Z,98373.81
2023-03-30T23:55:59.749Z,98378.09
2023-03-30T23:58:26.809Z,98371.31
